Capitol Logistics 3261


KTPA
Tampa International Airport
Tampa, Florida, US
KMIA
Miami International Airport
Miami, Florida, US

Activity Log

Date Flight Route Aircraft Duration
11/19/2019 CPX3261 GANDY8 SABEE CYY CYY9 SF34 1h 04m
11/03/2019 CPX661 GANDY8 SABEE CYY CYY9 SF34 1h 26m

Route Details

Aircraft Information
Primary: Saab 340AF
Backup: Not Available
Route Data
Distance: 177nm
Sched. Duration: 1h 25m
Avg. Duration: 1h 14m (-10m)
Times Flown: 2
Recm'd Route: GANDY8 SABEE CYY CYY9
Planned Altitude: 17,000ft
Origin Wx: KTPA 310653Z 00000KT 10SM FEW045 SCT060 BKN280 23/19 A2996
Dest. Wx: KMIA 310653Z 00000KT 10SM BKN017 24/22 A2998 RMK AO2 SLP151 T02440217
Notes:

Financial History
Total Freight: 9,350lbs
Average Load: 4,675lbs/flt
Fuel Used: 2,002lbs
Avg. Fuel Used: 1,001lbs/flt
Fuel Expense: $2,022
Avg. Fuel Expense: $1,011
Avg. Fuel Cost: $1.01/lbs
Total Gross Income: $10,855
Pilot Pay: $468
Total Expenses: $1,276
Total Revenue: $6,909
Average Revenue: $5,427.67